Big Brother GPS: View Test

Instructions View log Send data ...

CSV log file: /home/wstomv/bbg/positions-test.log

Filtering is ON: Invalid data records are not logged.

Unix timestamp conversion

Line Server
Time
Client
Time
Latitude Longitude Accuracy Altitude Provider Bearing Speed Battlevel Charging Secret Deviceid Subscriberid
1 2012-01-23 23:27:35Z 2012-01-23T23:27:33.875Z -25.363882 131.044922 804.0 0.0 network 0.0 0.0 99 1 Uluru (Ayers Rock)
2 2012-01-27 19:52:39Z 50 10 100 secret
3 2012-02-27 20:44:45Z 2012-02-27T20:44:45.00Z 51.46628747228533 5.46090530231595 15.0 100.0 gps 112.0 2.3769 87 0
4 2012-02-27 20:45:27Z 2012-02-27T20:45:27.00Z 51.46684444975108 5.460135340690613 15.0 100.0 gps 128.0 2.6271 87 0
5 2012-02-27 21:00:38Z 2012-02-27T21:00:39.14Z 51.4666105 5.4601502 25.0 0.0 network 0.0 0.0 86 0
6 2012-02-27 21:08:06Z 2012-02-27T21:08:06.00Z 51.46665749140084 5.4601469077169895 10.0 92.9000244140625 gps 136.0 0.5004 84 0
7 2012-02-27 21:23:24Z 2012-02-27T21:23:24.993Z 51.463848 5.4595733 922.0 0.0 network 0.0 0.0 81 0
8 2012-02-27 21:38:25Z 2012-02-27T21:38:25.171Z 51.4665968 5.4601276 25.0 0.0 network 0.0 0.0 78 0
9 2012-02-27 21:43:56Z 2012-02-27T21:43:56.817Z 51.4666102 5.4601502 25.0 0.0 network 0.0 0.0 78 0
10 2012-02-27 21:58:56Z 2012-02-27T21:58:57.478Z 51.4666067 5.4601105 26.0 0.0 network 0.0 0.0 75 0
11 2012-02-27 22:13:57Z 2012-02-27T22:13:57.478Z 51.4665678 5.4601116 24.0 0.0 network 0.0 0.0 71 0
12 2012-02-27 22:22:29Z 2012-02-27T22:22:29.00Z 51.4667969243601 5.4602741450071335 10.0 98.79998779296875 gps 223.0 3.44025 70 0
13 2012-02-28 06:49:30Z 2012-02-28T06:49:30.376Z 51.4666121 5.4601505 22.0 0.0 network 0.0 0.0 69 0
14 2012-02-28 07:04:27Z 2012-02-28T07:04:27.271Z 51.4665644 5.4601124 24.0 0.0 network 0.0 0.0 64 0
15 2012-02-28 07:19:27Z 2012-02-28T07:19:27.260Z 51.4666114 5.4601495 23.0 0.0 network 0.0 0.0 65 0
16 2012-02-28 07:34:28Z 2012-02-28T07:34:28.585Z 51.4666107 5.4601547 27.0 0.0 network 0.0 0.0 65 0
17 2012-02-28 07:49:17Z 2012-02-28T07:49:16.00Z 51.46667794324458 5.460060657933354 10.0 40.4000244140625 gps 33.0 1.6263 65 0
18 2012-02-28 08:04:10Z 2012-02-28T08:04:09.00Z 51.4668011572212 5.46026224270463 15.0 38.5999755859375 gps 316.0 2.2518 65 0
19 2012-02-28 08:19:09Z 2012-02-28T08:19:08.00Z 51.467161579057574 5.46022167429328 10.0 62.20001220703125 gps 176.0 1.5012001 65 0
20 2012-02-28 08:34:14Z 2012-02-28T08:34:13.00Z 51.46678120829165 5.460247406736016 15.0 62.20001220703125 gps 108.0 0.37530002 65 0
21 2012-02-28 08:39:24Z 2012-02-28T08:39:23.00Z 51.46668137982488 5.459853038191795 15.0 62.20001220703125 gps 195.0 3.3776999 65 0
22 2012-02-28 08:54:18Z 2012-02-28T08:54:17.00Z 51.466791979037225 5.459827221930027 10.0 62.0999755859375 gps 347.0 1.6263 65 0
23 2012-02-28 09:09:27Z 2012-02-28T09:09:26.00Z 51.46655699238181 5.460253190249205 15.0 40.9000244140625 gps 29.0 4.81635 65 0
24 2012-02-28 09:24:24Z 2012-02-28T09:24:24.00Z 51.46699486300349 5.460711680352688 15.0 42.5999755859375 gps 61.0 0.43785 65 0
25 2012-02-28 09:39:39Z 2012-02-28T09:39:39.401Z 51.4666097 5.4601496 27.0 0.0 network 0.0 0.0 60 0
26 2012-02-28 09:50:57Z 2012-02-28T09:50:56.907Z 51.4666097 5.4601496 27.0 0.0 network 0.0 0.0 57 0
27 2012-02-28 10:05:45Z 2012-02-28T10:05:43.00Z 51.46663892548531 5.45944232493639 15.0 105.5 gps 345.0 0.43785 56 0
28 2012-02-28 10:20:35Z 2012-02-28T10:20:35.00Z 51.466683726757765 5.459972145035863 10.0 80.29998779296875 gps 330.0 0.1251 56 0
29 2012-02-28 10:35:37Z 2012-02-28T10:35:37.00Z 51.46661051083356 5.459639383479953 10.0 92.5999755859375 gps 348.0 0.68805 56 0
30 2012-02-28 10:50:36Z 2012-02-28T10:50:35.00Z 51.46653415169567 5.460317227989435 10.0 27.4000244140625 gps 85.0 3.0024002 56 0
31 2012-02-28 11:05:37Z 2012-02-28T11:05:36.00Z 51.46650439593941 5.459807859733701 5.0 113.20001220703125 gps 112.0 0.56295 56 0
32 2012-02-28 11:20:37Z 2012-02-28T11:20:36.00Z 51.46658515557647 5.459566796198487 10.0 114.70001220703125 gps 285.0 1.251 56 0
33 2012-02-28 11:35:38Z 2012-02-28T11:35:36.00Z 51.466174526140094 5.459994273260236 10.0 88.70001220703125 gps 34.0 0.68805 56 0
34 2012-02-28 11:50:57Z 2012-02-28T11:50:56.922Z 51.4665908 5.460127 26.0 0.0 network 0.0 0.0 55 0
35 2012-02-28 12:05:34Z 2012-02-28T12:05:33.00Z 51.46686913445592 5.460077505558729 10.0 85.0999755859375 gps 181.0 0.68805 55 0
36 2012-02-28 12:20:57Z 2012-02-28T12:20:56.906Z 51.4665729 5.460111 27.0 0.0 network 0.0 0.0 52 0
37 2012-02-28 12:31:55Z 2012-02-28T12:31:54.478Z 51.4666593 5.4601277 32.0 0.0 network 0.0 0.0 52 0
38 2012-02-28 12:46:54Z 2012-02-28T12:46:54.484Z 51.4666121 5.4601505 22.0 0.0 network 0.0 0.0 49 0
39 2012-02-28 13:01:54Z 2012-02-28T13:01:54.469Z 51.4666114 5.4601495 23.0 0.0 network 0.0 0.0 45 0
40 2012-02-28 13:06:34Z 2012-02-28T13:06:34.489Z 51.4666372 5.4601332 27.0 0.0 network 0.0 0.0 44 0
41 2012-02-28 13:21:34Z 2012-02-28T13:21:34.77Z 51.466576 5.460118 24.0 0.0 network 0.0 0.0 40 0
42 2012-02-28 13:36:17Z 2012-02-28T13:36:16.00Z 51.46719401702285 5.460113966837525 20.0 76.4000244140625 gps 35.0 1.6888499 38 0
43 2012-02-28 13:45:46Z 2012-02-28T13:45:45.00Z 51.46660694852471 5.459983292967081 10.0 16.29998779296875 gps 199.0 0.56295 35 0
44 2012-02-28 14:00:51Z 2012-02-28T14:00:50.00Z 51.46666402928531 5.46036290936172 10.0 15.5999755859375 gps 235.0 0.31275 36 1
45 2012-02-28 14:15:55Z 2012-02-28T14:15:55.00Z 51.46693401038647 5.460716038942337 10.0 14.4000244140625 gps 251.0 0.68805 39 0
46 2012-02-28 14:30:48Z 2012-02-28T14:30:47.00Z 51.46664994768798 5.460124611854553 10.0 77.20001220703125 gps 173.0 0.43785 48 1
47 2012-02-28 14:45:52Z 2012-02-28T14:45:51.00Z 51.466657407581806 5.460407165810466 10.0 45.70001220703125 gps 91.0 0.43785 65 1
48 2012-02-28 15:00:51Z 2012-02-28T15:00:50.00Z 51.46745268255472 5.460193762555718 10.0 -0.600006103515625 gps 57.0 1.5012001 81 1
49 2012-02-28 15:15:56Z 2012-02-28T15:15:55.00Z 51.46681867539883 5.460304152220488 15.0 12.9000244140625 gps 171.0 3.2526 92 1
50 2012-02-28 15:30:51Z 2012-02-28T15:30:49.00Z 51.466224608011544 5.459927637130022 10.0 43.0 gps 176.0 1.56375 98 1
51 2012-02-28 15:45:50Z 2012-02-28T15:45:49.00Z 51.466289442032576 5.460194516927004 15.0 52.79998779296875 gps 338.0 0.8757 100 1
52 2012-02-28 16:01:09Z 2012-02-28T16:01:08.00Z 51.46672261878848 5.459665786474943 10.0 56.0999755859375 gps 247.0 1.06335 100 1
53 2012-02-28 16:15:51Z 2012-02-28T16:15:50.00Z 51.4664858719334 5.460125282406807 15.0 52.29998779296875 gps 82.0 1.56375 100 1
54 2012-02-28 16:30:48Z 2012-02-28T16:30:47.00Z 51.466731796972454 5.459979521110654 10.0 73.29998779296875 gps 158.0 0.5004 100 1
55 2012-02-28 16:39:23Z 2012-02-28T16:39:23.00Z 51.466555022634566 5.460318820551038 10.0 83.9000244140625 gps 219.0 0.75060004 100 1
56 2012-02-28 16:54:41Z 2012-02-28T16:54:41.330Z 51.4668323 5.4601299 30.0 0.0 network 0.0 0.0 100 1
57 2012-02-28 17:09:33Z 2012-02-28T17:09:33.00Z 51.46702985744923 5.460093095898628 10.0 81.20001220703125 gps 283.0 1.93905 100 1
58 2012-02-28 17:11:01Z 2012-02-28T17:11:00.00Z 51.466541276313365 5.459971642121673 10.0 76.0 gps 51.0 1.6888499 100 1
59 2012-02-28 17:25:57Z 2012-02-28T17:25:56.00Z 51.4664789987728 5.460343882441521 10.0 74.4000244140625 gps 320.0 0.43785 99 0
60 2012-02-28 17:41:05Z 2012-02-28T17:41:04.982Z 51.4666136 5.4601376 48.0 0.0 network 0.0 0.0 99 0
61 2012-02-28 17:50:34Z 2012-02-28T17:50:34.00Z 51.466418649069965 5.460363328456879 10.0 18.4000244140625 gps 346.0 1.1259 97 0 jeFf7742
62 2012-02-28 17:52:04Z 2012-02-28T17:52:04.00Z 51.466305535286665 5.4603981133550406 10.0 16.4000244140625 gps 165.0 2.31435 97 0 jeFf4472
63 2012-02-28 17:52:24Z 2012-02-28T17:52:24.00Z 51.46690836176276 5.460231816396117 5.0 105.5 gps 179.0 0.5004 97 0 jeFf4472
64 2012-02-28 18:07:03Z 2012-02-28T18:07:03.00Z 51.46630356553942 5.459886314347386 15.0 105.5 gps 99.0 1.06335 94 0 jeFf4472
65 2012-02-28 18:14:35Z 2012-02-28T18:14:35.00Z 51.46658318582922 5.460156546905637 10.0 54.0999755859375 gps 319.0 0.37530002 92 0 jeFf4472
66 2012-10-27 17:44:08Z WmKBkTslgnN biZEsCSizh SeKQfrsOUeEjqH http://enieemqhzmde.com/ pPTdJHrXBGcx 1071 mmfefg@ybrdka.com pOTDAhReWJW TEKLEHJwYiRqMd MguDCHILIz JjWvTmeXIeOP 44943 648923
67 2012-11-01 12:20:42Z 1221 1221 12 2121 12 2112 2121 2121 1212 2112 2121 12 12
68 2012-11-25 05:48:04Z 1 1 1 1 1 1 1 1 1 1 11
69 2012-12-07 12:12:11Z ASAS as 312 DAS SD ASDAS D2123 211 12312 312 12
70 2013-04-14 15:23:09Z 2:38pm 2 2 2 2 2 2 2 2 2 22 22 222
71 2013-06-16 03:37:19Z 13:33 130.00 15.00 5 3 net 150 3 70 0 abcdef 111 222
72 2013-06-16 04:01:35Z 15 16 17
73 2013-06-16 04:11:56Z 25 26 17
74 2013-06-27 00:22:27Z 1 1 1 4111111111111111 1 1 1 1 1 1 1 1 1
75 2013-07-09 14:49:53Z 15:55 156 654 321 2 56 1 321 32 1 32
76 2013-07-16 01:03:18Z -25.363882 131.044922 804.0
77 2013-09-07 20:56:28Z 10 20 100 xx
78 2014-02-24 05:25:12Z Oedgugzg uHJYRSrNOwoBXYfbUdN uvKLeQXEfBBgpSoHX http://simpaydayloans.co.uk/ nqnMRLuMzUCqrgz 44903 nsqdmkgg@mgpntnfn.com ynyEgxMtrewl eJwBfGyeLPlOWns khItsVvhQCJ VUemGslXLK 200598 493258
79 2014-03-18 18:55:52Z 22 14.35 -90.56 20
80 2014-04-10 04:50:32Z erwe wrw werwe r werw w we ewer we w ewre erw wrwer
81 2014-04-10 04:51:33Z ewrwer 123123123 4534345345 11 wrwe werew wrw wrwe wrwer 1 werwerwr 3523 23434
82 2014-04-10 04:52:33Z fs f sdf dfsdf f dsf df fdf f sdfd f df 34324
83 2014-04-10 04:55:20Z fs f sdf dfsdf f dsf df fdf f sdfd f df 34324
84 2014-04-10 08:39:31Z ewrwer 123123123 4534345345 11 wrwe werew wrw wrwe wrwer 1 werwerwr 3523 23434
85 2014-04-10 08:39:46Z ewrwer 123123123 4534345345 11 wrwe werew wrw wrwe wrwer 1 werwerwr 3523 23434
86 2014-04-10 08:40:05Z ewrwer 123123123 4534345345 11 wrwe werew wrw wrwe wrwer 1 werwerwr 3523 23434
87 2014-04-11 07:10:37Z dpjrnhwrth HkpCZnEvGrxWhJI nCUeWNlTTVInJ http://mmctktntnncg.com/ JAHlZpGcPZirTDGfao 57357 frwziz@axvili.com SsdyGTOHYYGVkhdp ZjEBjFIKaoDLkwjcwe VKbibJCmMlJCQlREDt tIXZMfTFWVlvdcbpg 28439 689610
88 2014-05-23 22:21:39Z horny NluhyIKgKdYzghEdE QipsjGZQNwXlk bwvKldtwcSjXpW wUwwrrihOAckChsS 359816 dNBmPmqWi TqJVoLMVMSkVwdtW twBhNdXi lEUqpVUYIckmqbYOH GjMlkjSiOCmbcirqy 1971 86423
89 2014-09-10 13:35:58Z azluue qmyabMHK IAZVcMRygwAp http://jrrqrjfuomjr.com/ xQwjZkkHcXNxNHf azluue ePzxBDKUVjYlfBH EWGkrVCn mbfbrXahtVKVZi wcagxvmewkrMcvFH SiCNMQRtVLPuyhjpS azluue azluue
90 2014-10-07 19:09:44Z matt UMWsIzHePI TkkiKrhMSYP gUnVksaStPEyxzAlZ LOlhMzqggGYYYbYjMWg 2619 YFSdlsVxfzrR jWikEUBgjdZgCcZe TKiCMzGgzyP WCdsEQSu qCCRiWJGVOlZ 14244 299998
91 2014-10-16 00:10:52Z john WokfRrrqDCvzQsT MLjVSbqVF uoDxwLCSG zAatbwBjQx 364281 YUXRkSdrIHzVCrrRCy lKNivilTfnRqY lSGGTPVNHgbECyscSx EuocDqsNRh TnqXHKbaYbb 241729 968977
92 2015-01-06 15:17:45Z gordon vlXJJWPoUpSvOqfbe nrOtoYCgQ xlJAyYaXSqKJGy glIGYdeDLmptDPm 874143 rFuVvlHbh cEGmXpALNelzLAmWjNN dhdYcRZFDRBUiEqP pHbzFnEqVbkPx QdczHIIkW 10565 2742
93 2015-01-11 16:00:47Z 1 1 1 4111111111111111 1 1 1 1 1 1 1 1 1
94 2015-01-12 11:04:33Z varlog WzVcuIYcuvlM zWibJaucjRq XbjfsLcHfahxc zQjPjMhVCvLc 2504 UuGufyWtXauT NboYLLoZbytaowh OYDvIbDfKZVyT DZIjsdFIBXJWqB yDAjgjEpoSaEvSXevjC 56221 63249
95 2015-04-06 02:05:31Z 43 -122 10
96 2015-04-30 22:13:24Z rodjer rFsKNvPMZcZGQwIKOvS flEGKmhRcMxGqAk kAYjuUSUyrDksdvEaKf xnKFtGJqgqTEXMd 54247 IZlUURkNN spgqSnJcxInQkGlQG LEQoPqTNeERzoNEpN EhldvYmbUFGCeCHYn dTnnMhvcqaNJJGoAi 380623 471301
97 2015-06-26 14:51:40Z -75 -45 3 98 network 99 23 34 1 secr mar
98 2015-08-09 05:50:21Z Bradley NtMqlqsIeJSoLRI huAfhQTohesY PdbUniSewnNw CjbqDKIrboZvXy 9036 vdAwleggn KJSZgcGzQmZKhiq WFptIYBI FmFzWctJRZOpbMonOeN OGIQQKgaQqrM 9316 137474
99 2015-08-11 05:57:41Z Bradley SeclXwHCUKJsb FnnEvzdPgRNSPYEf WxrjiVUAgk aAoOPsrLonqHj 539007 vpRdLFwzx ohBKBjJbxKCdzcBw taZaILGotBNoar IqqGElPkchQI dcfSaoXmCxZU 444768 9980
100 2015-08-12 12:18:43Z Bradley eVQJOOBntj CndrzEUCYPlXnL vvpsTYmqJQ cvwRZAAWFdiJ 7799 IWcTzeDQdeoy tOXtVkCkccKp dEWRPWiv klBmefIhwrhPV fSGJizLHGIA 9528 737450
101 2015-10-24 16:55:50Z Bradley kcNPElMisZwEhXWeR bPurastD fpvdKnlJLQCJgo NctCHvCHWxqoYahr 57919 GPaUcBfoUMApqIZ vexcDbueEGSw gdvyDoVJpdb sFIFGamcxjfPmOLt ZgTDCjeejFAHGgMiN 223914 468085
102 2015-10-26 16:40:51Z Bradley EXtxPokiLIzFGHZjwEo VIxnlEwANc ETKaAiArfM IonZiqDXzzlyYeCFObv 480993 OSpGMllxVAMsumU uuIIDckKULcor JbfGbCQaAqobSwyCvyk agZDFgqStt RzUQmXDMnwLQB 506098 14314
103 2016-02-06 23:34:33Z Mark MYHEypNZgDInfQtWEz cgXeYrnkUxsLZsQBgJl knMEMLjIumfbP HrjFRWDfuLpsTScHdGX 65228 qgZJXntKhAqaXfmNONz tEquVNPU oEzzXOsdmrPmvU KfGxUSfdRieo wOGpTBYzsyfOLmEatAe 634678 70433
104 2016-03-03 21:56:50Z pmPVURDt UgekVuEXTnLIqhLr YghBNOnRcO nrIukOQVkCaBUTigNI ZifnQdjYI pVctemFadZn VYjBoBeXpEXQs TYBXraNdKik XxcGFHcEWz AkdPkMXB nJyTbnrvDFmM CiLCrZlMdeYERmgg ONgrmvikIu
105 2017-01-09 00:20:42Z MhdqOySEE rctydTmaKONFS UCDLYJYVdfGFIHXd MBajuCdQ tNaiNLiVpkTOF QzvwIYzTnkJqQwwcmM tSvdJrXhQv cNwWmvLzcPOszYml jyMutaEXJAyQWdt qgcErUipKMjCIrWGGXy eehvpWTqqVm KhAJZtQXMvuswUbzy SXqNqQgZJ
106 2017-01-23 21:23:24Z 20160123 -33 -69 5 960 claro 0 5 90 1 1234 32132132 3233
107 2017-03-12 14:12:32Z 1 1 1 4111111111111111 1 1 1 1 1 1 1 1 1